createdAt,value
2023-05-20T00:01:34.435Z,10.9
2023-05-20T00:03:36.049Z,10.9
2023-05-20T00:05:37.387Z,10.8
2023-05-20T00:07:38.839Z,10.8
2023-05-20T00:09:43.620Z,10.7
2023-05-20T00:11:45.109Z,10.7
2023-05-20T00:13:46.540Z,10.9
2023-05-20T00:15:48.001Z,10.8
2023-05-20T00:17:49.509Z,10.8
2023-05-20T00:19:50.928Z,10.8
2023-05-20T00:28:00.123Z,10.9
2023-05-20T00:29:02.543Z,10.9
2023-05-20T00:31:03.959Z,11
2023-05-20T00:33:05.532Z,10.8
2023-05-20T00:35:06.886Z,10.8
2023-05-20T00:37:11.655Z,10.9
2023-05-20T00:39:13.138Z,10.9
2023-05-20T00:41:14.588Z,10.8
2023-05-20T00:43:16.089Z,10.8
2023-05-20T00:45:17.535Z,10.8
2023-05-20T00:47:19.023Z,10.7
2023-05-20T00:49:20.500Z,10.7
2023-05-20T00:51:25.237Z,10.7
2023-05-20T00:55:28.246Z,10.7
2023-05-20T00:57:29.659Z,10.6
2023-05-20T01:09:41.810Z,10.3
2023-05-20T01:11:43.237Z,10.2
2023-05-20T01:13:44.760Z,10.2
2023-05-20T01:17:47.780Z,10.2
2023-05-20T01:23:56.938Z,10.1
2023-05-20T01:26:19.999Z,10
2023-05-20T01:30:22.904Z,10
2023-05-20T01:32:27.702Z,9.8
2023-05-20T01:36:30.595Z,9.9
2023-05-20T01:38:32.098Z,9.8
2023-05-20T01:40:33.588Z,9.8
2023-05-20T01:42:35.041Z,9.9
2023-05-20T01:46:41.286Z,9.9
2023-05-20T01:48:42.715Z,9.8
2023-05-20T01:50:44.244Z,9.8
2023-05-20T01:54:47.155Z,9.8
2023-05-20T01:56:48.613Z,9.8
2023-05-20T01:58:50.090Z,9.8
2023-05-20T02:00:54.839Z,9.8
2023-05-20T02:02:56.335Z,9.7
2023-05-20T02:04:57.786Z,9.8
2023-05-20T02:06:59.234Z,9.8
2023-05-20T02:09:00.694Z,9.7
2023-05-20T02:13:03.662Z,9.7
2023-05-20T02:19:11.380Z,9.6
2023-05-20T02:20:13.725Z,9.7
2023-05-20T02:24:16.607Z,9.8
2023-05-20T02:26:18.042Z,9.7
2023-05-20T02:30:24.268Z,9.7
2023-05-20T02:32:25.749Z,9.6
2023-05-20T02:34:27.226Z,9.6
2023-05-20T02:36:28.681Z,9.6
2023-05-20T02:38:30.112Z,9.6
2023-05-20T02:40:31.584Z,9.5
2023-05-20T02:42:36.362Z,9.6
2023-05-20T02:44:37.810Z,9.6
2023-05-20T02:46:39.295Z,9.5
2023-05-20T02:50:42.227Z,9.4
2023-05-20T02:54:45.078Z,9.4
2023-05-20T03:02:54.279Z,9.3
2023-05-20T03:04:55.763Z,9.2
2023-05-20T03:13:04.779Z,9.2
2023-05-20T03:16:08.724Z,9.1
2023-05-20T03:18:10.095Z,9.2
2023-05-20T03:20:11.574Z,9
2023-05-20T03:22:13.022Z,9
2023-05-20T03:24:17.773Z,8.9
2023-05-20T03:26:19.288Z,8.9
2023-05-20T03:28:20.718Z,8.9
2023-05-20T03:32:23.613Z,8.9
2023-05-20T03:34:25.074Z,8.8
2023-05-20T03:36:26.512Z,8.7
2023-05-20T03:38:31.266Z,8.6
2023-05-20T03:40:32.768Z,8.6
2023-05-20T03:42:34.255Z,8.7
2023-05-20T03:46:37.236Z,8.7
2023-05-20T03:50:40.145Z,8.7
2023-05-20T03:54:46.354Z,8.5
2023-05-20T03:56:47.796Z,8.5
2023-05-20T03:58:49.260Z,8.5
2023-05-20T04:00:50.722Z,8.6
2023-05-20T04:02:52.221Z,8.6
2023-05-20T04:04:53.635Z,8.6
2023-05-20T04:06:58.381Z,8.6
2023-05-20T04:08:59.822Z,8.6
2023-05-20T04:11:01.245Z,8.6
2023-05-20T04:12:03.667Z,8.6
2023-05-20T04:20:12.843Z,9
2023-05-20T04:22:14.266Z,9
2023-05-20T04:24:15.725Z,9
2023-05-20T04:26:17.174Z,9.1
2023-05-20T04:28:18.637Z,9.2
2023-05-20T04:32:21.508Z,9.4
2023-05-20T04:34:26.305Z,9.3
2023-05-20T04:36:27.813Z,9.3
2023-05-20T04:40:30.751Z,9.5
2023-05-20T04:42:32.204Z,9.8
2023-05-20T04:44:33.669Z,10.4
2023-05-20T04:46:35.202Z,10.9
2023-05-20T04:48:39.859Z,11.5
2023-05-20T05:04:54.819Z,12.9
2023-05-20T05:09:23.192Z,13.5
2023-05-20T05:15:30.891Z,13.8
2023-05-20T05:17:32.387Z,13.8
2023-05-20T05:19:33.791Z,13.8
2023-05-20T05:21:35.289Z,13.7
2023-05-20T05:23:36.732Z,13.7
2023-05-20T05:31:45.902Z,14.4
2023-05-20T05:37:50.276Z,14.7
2023-05-20T05:48:00.951Z,15.9
2023-05-20T05:50:02.304Z,15.7
2023-05-20T05:52:03.723Z,15.7
2023-05-20T06:02:14.366Z,16
2023-05-20T06:03:16.782Z,16.5
2023-05-20T06:07:19.592Z,16.5
2023-05-20T06:09:21.055Z,16.3
2023-05-20T06:13:27.233Z,16.2
2023-05-20T06:15:28.706Z,16.1
2023-05-20T06:17:30.200Z,16.4
2023-05-20T06:19:31.607Z,16.5
2023-05-20T06:21:33.038Z,16.7
2023-05-20T06:23:34.463Z,16.3
2023-05-20T06:25:39.229Z,16.5
2023-05-20T06:29:43.748Z,17
2023-05-20T06:31:43.593Z,16.4
2023-05-20T06:33:45.030Z,16.3
2023-05-20T06:35:46.500Z,16.2
2023-05-20T06:37:48.028Z,16.7
2023-05-20T06:39:52.665Z,16.9
2023-05-20T06:41:54.105Z,16.6
2023-05-20T06:43:55.554Z,16.8
2023-05-20T06:45:57.029Z,17.9
2023-05-20T06:47:58.437Z,17.5
2023-05-20T06:49:59.887Z,17
2023-05-20T06:52:01.351Z,17.2
2023-05-20T06:54:06.091Z,18
2023-05-20T06:56:07.497Z,18.3
2023-05-20T06:58:08.925Z,17.4
2023-05-20T06:59:11.303Z,17.6
2023-05-20T07:03:14.176Z,17.5
2023-05-20T07:05:15.656Z,17.4
2023-05-20T07:07:20.412Z,17.6
2023-05-20T07:09:23.353Z,17.8
2023-05-20T07:11:24.732Z,17.7
2023-05-20T07:15:27.683Z,18.1
2023-05-20T07:17:29.049Z,17.7
2023-05-20T07:19:30.524Z,17.6
2023-05-20T07:23:36.614Z,17.3
2023-05-20T07:25:38.027Z,17.6
2023-05-20T07:27:39.477Z,17.8
2023-05-20T07:29:40.870Z,18.1
2023-05-20T07:33:43.799Z,17.6
2023-05-20T07:35:48.414Z,18
2023-05-20T07:37:49.770Z,17.6
2023-05-20T07:39:51.186Z,18.1
2023-05-20T07:43:54.024Z,18.1
2023-05-20T07:45:55.486Z,18.5
2023-05-20T07:50:01.626Z,18.1
2023-05-20T07:52:03.310Z,18
2023-05-20T08:03:15.800Z,18.7
2023-05-20T08:13:22.534Z,19.3
2023-05-20T08:15:23.873Z,19.1
2023-05-20T08:17:28.427Z,18.9
2023-05-20T08:19:29.847Z,19.4
2023-05-20T08:21:31.110Z,19.5
2023-05-20T08:23:35.936Z,18.9
2023-05-20T08:33:42.395Z,19
2023-05-20T08:35:43.745Z,19.1
2023-05-20T08:37:45.100Z,19.7
2023-05-20T08:52:19.029Z,19.5
2023-05-20T08:54:20.400Z,19.6
2023-05-20T08:56:21.714Z,19.9
2023-05-20T08:58:26.241Z,19.6
2023-05-20T09:00:27.604Z,19.5
2023-05-20T09:02:29.007Z,19.8
2023-05-20T09:04:30.331Z,19.4
2023-05-20T09:08:32.920Z,20.6
2023-05-20T09:10:34.178Z,20.4
2023-05-20T09:12:38.678Z,19.2
2023-05-20T09:14:39.964Z,19.3
2023-05-20T09:16:41.484Z,19.7
2023-05-20T09:18:42.595Z,19.9
2023-05-20T09:20:43.961Z,19.7
2023-05-20T09:22:45.264Z,20.6
2023-05-20T09:26:51.144Z,20
2023-05-20T09:28:52.421Z,20.4
2023-05-20T09:30:53.700Z,19.8
2023-05-20T09:32:55.066Z,20.1
2023-05-20T09:34:56.411Z,19.8
2023-05-20T09:36:57.637Z,18.8
2023-05-20T09:38:58.915Z,19
2023-05-20T09:41:03.452Z,19.7
2023-05-20T09:43:04.860Z,20.2
2023-05-20T09:50:11.009Z,21.5
2023-05-20T09:52:12.330Z,21.1
2023-05-20T09:54:17.008Z,18.8
2023-05-20T09:56:18.287Z,18.8
2023-05-20T09:58:19.671Z,19.4
2023-05-20T10:00:20.925Z,20.8
2023-05-20T10:08:29.364Z,19.9
2023-05-20T10:10:30.660Z,19.8
2023-05-20T10:12:31.938Z,18.7
2023-05-20T10:14:33.245Z,18.6
2023-05-20T10:16:34.560Z,19.2
2023-05-20T10:18:35.919Z,19
2023-05-20T10:20:37.214Z,18.3
2023-05-20T10:22:41.710Z,19.7
2023-05-20T10:24:43.070Z,20.3
2023-05-20T10:26:44.278Z,19.4
2023-05-20T10:28:45.562Z,19.5
2023-05-20T10:30:46.875Z,18.7
2023-05-20T10:32:48.401Z,18.7
2023-05-20T10:34:49.666Z,18.9
2023-05-20T10:36:54.073Z,18.6
2023-05-20T10:38:55.487Z,18.9
2023-05-20T10:41:59.134Z,20
2023-05-20T10:44:00.499Z,20.2
2023-05-20T10:48:03.317Z,19.2
2023-05-20T10:50:07.891Z,18.9
2023-05-20T10:54:10.428Z,19.2
2023-05-20T10:56:11.860Z,19
2023-05-20T10:58:13.254Z,18.9
2023-05-20T11:00:14.627Z,20
2023-05-20T11:02:15.948Z,19.6
2023-05-20T11:04:20.478Z,19.2
2023-05-20T11:14:27.053Z,20.2
2023-05-20T11:16:28.455Z,20.4
2023-05-20T11:18:33.030Z,20.6
2023-05-20T11:20:34.520Z,20.3
2023-05-20T11:22:35.541Z,20.5
2023-05-20T11:24:36.806Z,20.7
2023-05-20T11:26:38.094Z,20
2023-05-20T11:28:39.367Z,19.6
2023-05-20T11:34:46.346Z,20.3
2023-05-20T11:36:47.606Z,19.8
2023-05-20T11:37:49.839Z,20.1
2023-05-20T11:39:51.138Z,20.4
2023-05-20T11:41:52.496Z,20.2
2023-05-20T11:47:59.557Z,20.3
2023-05-20T11:52:02.007Z,21.4
2023-05-20T11:56:04.615Z,21.3
2023-05-20T11:58:05.848Z,20.2
2023-05-20T12:00:10.309Z,19.6
2023-05-20T12:02:11.616Z,19.5
2023-05-20T12:04:13.006Z,20
2023-05-20T12:06:14.072Z,20.8
2023-05-20T12:08:15.335Z,21.3
2023-05-20T12:10:16.556Z,20.8
2023-05-20T12:12:17.837Z,20.4
2023-05-20T12:14:22.302Z,20
2023-05-20T12:16:23.597Z,19.9
2023-05-20T12:18:24.803Z,20.4
2023-05-20T12:20:26.071Z,20.4
2023-05-20T12:22:27.329Z,20.2
2023-05-20T12:24:28.562Z,19.9
2023-05-20T12:26:30.063Z,19.8
2023-05-20T12:28:34.262Z,20.2
2023-05-20T12:30:35.805Z,20.4
2023-05-20T12:32:36.785Z,20.7
2023-05-20T12:34:59.670Z,21.5
2023-05-20T12:49:11.617Z,20.8
2023-05-20T12:51:12.844Z,21
2023-05-20T13:09:32.033Z,21.6
2023-05-20T13:13:34.528Z,22.5
2023-05-20T13:15:35.807Z,22.7
2023-05-20T13:17:37.094Z,22.5
2023-05-20T13:28:48.800Z,23
2023-05-20T13:30:50.003Z,23.4
2023-05-20T13:32:51.201Z,23.7
2023-05-20T13:34:52.440Z,22.2
2023-05-20T13:38:58.144Z,20.6
2023-05-20T13:40:59.424Z,20.3
2023-05-20T13:43:00.624Z,20.3
2023-05-20T13:45:01.902Z,22.1
2023-05-20T13:53:10.052Z,22.1
2023-05-20T13:55:11.258Z,22.6
2023-05-20T13:57:12.529Z,23
2023-05-20T13:59:13.746Z,22.7
2023-05-20T14:03:16.256Z,23
2023-05-20T14:07:21.878Z,23.2
2023-05-20T14:11:24.344Z,21
2023-05-20T14:15:26.604Z,20.3
2023-05-20T14:19:32.456Z,20.4
2023-05-20T14:24:37.004Z,22.6
2023-05-20T14:28:39.432Z,23
2023-05-20T14:32:45.149Z,22.9
2023-05-20T14:34:46.365Z,23.1
2023-05-20T14:36:47.595Z,23.3
2023-05-20T14:38:49.613Z,21.6
2023-05-20T14:40:50.018Z,20.9
2023-05-20T14:42:51.216Z,21.4
2023-05-20T14:44:52.477Z,21.1
2023-05-20T15:03:10.256Z,20.4
2023-05-20T15:05:11.296Z,20.7
2023-05-20T15:07:12.552Z,20.6
2023-05-20T15:09:13.850Z,20.4
2023-05-20T15:11:15.141Z,20.4
2023-05-20T15:13:16.376Z,19.8
2023-05-20T15:15:20.833Z,20
2023-05-20T15:17:22.101Z,19.9
2023-05-20T15:19:23.416Z,19.9
2023-05-20T15:20:25.570Z,19.8
2023-05-20T15:24:28.111Z,19.9
2023-05-20T15:26:29.344Z,20
2023-05-20T15:28:33.852Z,20.1
2023-05-20T15:30:35.397Z,20.1
2023-05-20T15:32:36.548Z,20.2
2023-05-20T15:34:37.713Z,20.2
2023-05-20T15:36:38.980Z,20.4
2023-05-20T15:44:47.246Z,20.5
2023-05-20T15:48:49.913Z,20.2
2023-05-20T15:52:52.986Z,20.3
2023-05-20T15:56:58.619Z,20.6
2023-05-20T15:58:59.932Z,20.7
2023-05-20T16:03:02.535Z,20.6
2023-05-20T16:07:04.975Z,20.8
2023-05-20T16:11:10.736Z,21.3
2023-05-20T16:13:12.011Z,20.9
2023-05-20T16:15:13.286Z,20.7
2023-05-20T16:19:30.920Z,20.1
2023-05-20T16:21:32.159Z,20.3
2023-05-20T16:23:36.668Z,20.6
2023-05-20T16:25:37.925Z,20.8
2023-05-20T16:27:39.204Z,22
2023-05-20T16:29:40.406Z,22.2
2023-05-20T16:33:43.004Z,22.7
2023-05-20T16:35:44.194Z,22.6
2023-05-20T16:37:48.726Z,21.6
2023-05-20T16:39:49.956Z,21.2
2023-05-20T16:41:51.151Z,20.3
2023-05-20T16:43:52.408Z,19.8
2023-05-20T16:45:53.755Z,19.8
2023-05-20T16:47:55.000Z,20.1
2023-05-20T16:49:56.205Z,20.1
2023-05-20T16:52:00.731Z,20.7
2023-05-20T16:54:01.954Z,21.4
2023-05-20T16:56:03.235Z,21.7
2023-05-20T16:58:04.489Z,21.7
2023-05-20T17:00:05.747Z,20.2
2023-05-20T17:06:12.961Z,19
2023-05-20T17:08:14.266Z,19
2023-05-20T17:10:15.595Z,19
2023-05-20T17:11:17.865Z,19
2023-05-20T17:15:20.520Z,19
2023-05-20T17:17:21.811Z,18.9
2023-05-20T17:19:26.533Z,18.8
2023-05-20T17:23:28.988Z,18.7
2023-05-20T17:25:30.357Z,18.8
2023-05-20T17:33:38.955Z,20.3
2023-05-20T17:37:41.535Z,21
2023-05-20T17:39:42.893Z,21
2023-05-20T17:41:44.198Z,21.1
2023-05-20T17:43:45.503Z,20.6
2023-05-20T17:45:46.924Z,20.5
2023-05-20T17:47:51.396Z,19.2
2023-05-20T17:49:52.659Z,18.9
2023-05-20T17:51:54.021Z,18.5
2023-05-20T17:53:55.286Z,18.3
2023-05-20T17:55:56.689Z,18.2
2023-05-20T17:57:57.861Z,18.1
2023-05-20T17:59:59.179Z,18.1
2023-05-20T18:02:03.953Z,18
2023-05-20T18:04:05.256Z,18
2023-05-20T18:06:06.490Z,17.8
2023-05-20T18:07:08.857Z,17.7
2023-05-20T18:09:10.269Z,17.6
2023-05-20T18:11:11.664Z,17.5
2023-05-20T18:17:19.039Z,17.3
2023-05-20T18:19:20.470Z,17.3
2023-05-20T18:21:21.776Z,17.2
2023-05-20T18:25:24.601Z,17
2023-05-20T18:27:25.955Z,17
2023-05-20T18:29:30.675Z,17
2023-05-20T18:31:32.166Z,17
2023-05-20T18:33:33.540Z,16.9
2023-05-20T18:35:34.997Z,16.9
2023-05-20T18:37:36.405Z,16.8
2023-05-20T18:39:37.870Z,16.8
2023-05-20T18:41:46.608Z,16.8
2023-05-20T18:43:44.013Z,16.8
2023-05-20T18:45:45.492Z,16.8
2023-05-20T18:47:46.908Z,16.8
2023-05-20T18:49:49.854Z,16.8
2023-05-20T18:51:51.251Z,16.8
2023-05-20T18:53:52.710Z,16.8
2023-05-20T18:55:54.120Z,16.8
2023-05-20T18:57:58.851Z,16.8
2023-05-20T19:00:00.281Z,16.8
2023-05-20T19:02:01.749Z,16.7
2023-05-20T19:03:04.174Z,16.7
2023-05-20T19:05:05.559Z,16.7
2023-05-20T19:07:07.083Z,16.6
2023-05-20T19:09:08.375Z,16.6
2023-05-20T19:11:13.124Z,16.5
2023-05-20T19:13:14.564Z,16.5
2023-05-20T19:15:16.025Z,16.5
2023-05-20T19:19:18.882Z,16.5
2023-05-20T19:21:20.310Z,16.5
2023-05-20T19:23:21.741Z,16.5
2023-05-20T19:35:33.857Z,16.4
2023-05-20T19:37:35.233Z,16.3
2023-05-20T19:39:39.903Z,16.3
2023-05-20T19:41:41.283Z,16.3
2023-05-20T19:45:44.192Z,16.3
2023-05-20T19:47:46.156Z,16.3
2023-05-20T19:49:47.458Z,16.3
2023-05-20T19:51:48.908Z,16.2
2023-05-20T19:53:53.678Z,16.2
2023-05-20T19:55:55.084Z,16.2
2023-05-20T19:57:56.692Z,16.2
2023-05-20T20:00:19.425Z,16.2
2023-05-20T20:08:28.456Z,16.2
2023-05-20T20:12:31.349Z,16.2
2023-05-20T20:16:34.392Z,16.2
2023-05-20T20:22:41.864Z,16.1
2023-05-20T20:24:43.304Z,16.1
2023-05-20T20:26:44.767Z,16.1
2023-05-20T20:28:46.206Z,16.1
2023-05-20T20:32:49.204Z,16
2023-05-20T20:34:53.840Z,15.9
2023-05-20T20:36:55.251Z,15.9
2023-05-20T20:38:56.734Z,15.9
2023-05-20T20:42:59.576Z,15.9
2023-05-20T20:45:01.070Z,15.9
2023-05-20T20:47:02.612Z,15.9
2023-05-20T20:54:12.462Z,15.9
2023-05-20T20:56:13.974Z,15.9
2023-05-20T20:58:15.750Z,15.9
2023-05-20T21:00:16.856Z,16
2023-05-20T21:02:21.609Z,15.9
2023-05-20T21:06:24.405Z,15.9
2023-05-20T21:08:25.871Z,15.9
2023-05-20T21:10:27.327Z,15.9
2023-05-20T21:12:28.767Z,15.9
2023-05-20T21:14:30.214Z,15.9
2023-05-20T21:18:36.382Z,15.9
2023-05-20T21:22:39.287Z,15.9
2023-05-20T21:24:40.705Z,15.9
2023-05-20T21:26:42.164Z,15.8
2023-05-20T21:32:49.865Z,15.8
2023-05-20T21:34:51.229Z,15.8
2023-05-20T21:36:52.675Z,15.8
2023-05-20T21:38:54.126Z,15.8
2023-05-20T21:40:55.592Z,15.8
2023-05-20T21:42:57.002Z,15.8
2023-05-20T21:49:04.665Z,15.6
2023-05-20T21:50:07.017Z,15.5
2023-05-20T21:52:08.456Z,15.5
2023-05-20T21:58:16.110Z,15.2
2023-05-20T22:00:17.595Z,15.2
2023-05-20T22:10:24.783Z,14.9
2023-05-20T22:14:30.993Z,14.7
2023-05-20T22:16:32.542Z,14.6
2023-05-20T22:20:35.344Z,14.6
2023-05-20T22:22:36.821Z,14.5
2023-05-20T22:24:38.264Z,14.5
2023-05-20T22:28:44.496Z,14.4
2023-05-20T22:30:45.985Z,14.2
2023-05-20T22:32:47.393Z,14.1
2023-05-20T22:34:48.856Z,14
2023-05-20T22:36:50.298Z,13.9
2023-05-20T22:38:51.754Z,13.7
2023-05-20T22:40:56.546Z,13.4
2023-05-20T22:42:58.024Z,13.3
2023-05-20T22:44:59.442Z,13.4
2023-05-20T22:50:04.743Z,13.7
2023-05-20T22:52:06.227Z,13.6
2023-05-20T22:54:10.960Z,13.6
2023-05-20T22:56:12.432Z,13.6
2023-05-20T22:58:13.884Z,13.5
2023-05-20T23:00:15.403Z,13.6
2023-05-20T23:02:16.765Z,13.7
2023-05-20T23:12:27.432Z,13.7
2023-05-20T23:24:39.528Z,13.5
2023-05-20T23:28:42.497Z,13.5
2023-05-20T23:36:51.638Z,13.7
2023-05-20T23:38:53.110Z,13.7
2023-05-20T23:40:54.536Z,13.7
2023-05-20T23:43:21.173Z,13.8
2023-05-20T23:45:22.659Z,13.7
2023-05-20T23:47:24.125Z,13.8
2023-05-20T23:49:28.873Z,13.9
2023-05-20T23:51:30.334Z,13.9
2023-05-20T23:53:31.782Z,13.9
2023-05-20T23:57:34.712Z,13.9
2023-05-20T23:59:36.183Z,13.9
